NKS585 KMYR-KLGA
Flight info
| Callsign | NKS585 |
|---|---|
| Flight time | 1h 27m |
| Altitude | 39000 |
| Route | CRE CHKLZ ZORDO Q107 HURTS PROUD2 |
| Aircraft | A320/M-SDE3FGHIRWY/LB1 |
Departure
| Time | 2026-05-05 00:59 |
|---|---|
| Airport | Myrtle Beach International Airport (KMYR) |
Arrival
| Time | 2026-05-05 02:26 |
|---|---|
| Airport | LaGuardia Airport (KLGA) |
| Time | Latitude | Longitude | Altitude | Speed | Heading |
|---|---|---|---|---|---|
| 2026-05-05 00:31 | 33.68167 | -78.92392 | 35 ft | 0 kts | 77° |
| 2026-05-05 00:50 | 33.68166 | -78.92398 | 35 ft | 4 kts | 77° |
| 2026-05-05 00:50 | 33.68161 | -78.92426 | 35 ft | 1 kts | 77° |
| 2026-05-05 00:51 | 33.68161 | -78.92427 | 35 ft | 0 kts | 77° |
| 2026-05-05 00:53 | 33.68163 | -78.92423 | 35 ft | 2 kts | 61° |
| 2026-05-05 00:53 | 33.68180 | -78.92420 | 35 ft | 3 kts | 343° |
| 2026-05-05 00:54 | 33.68203 | -78.92442 | 35 ft | 5 kts | 321° |
| 2026-05-05 00:54 | 33.68233 | -78.92476 | 34 ft | 6 kts | 294° |
| 2026-05-05 00:54 | 33.68225 | -78.92532 | 36 ft | 8 kts | 246° |
| 2026-05-05 00:54 | 33.68199 | -78.92604 | 36 ft | 11 kts | 246° |
| 2026-05-05 00:55 | 33.68196 | -78.92687 | 34 ft | 7 kts | 335° |
| 2026-05-05 00:55 | 33.68232 | -78.92693 | 34 ft | 10 kts | 347° |
| 2026-05-05 00:55 | 33.68321 | -78.92717 | 34 ft | 17 kts | 347° |
| 2026-05-05 00:55 | 33.68508 | -78.92765 | 32 ft | 25 kts | 348° |
| 2026-05-05 00:56 | 33.68632 | -78.92796 | 31 ft | 28 kts | 349° |
| 2026-05-05 00:56 | 33.68824 | -78.92844 | 35 ft | 29 kts | 348° |
| 2026-05-05 00:56 | 33.69026 | -78.92857 | 32 ft | 30 kts | 6° |
| 2026-05-05 00:56 | 33.69199 | -78.92895 | 35 ft | 19 kts | 346° |
| 2026-05-05 00:57 | 33.69276 | -78.92949 | 35 ft | 12 kts | 278° |
| 2026-05-05 00:57 | 33.69262 | -78.93031 | 32 ft | 9 kts | 256° |
| 2026-05-05 00:57 | 33.69260 | -78.93040 | 34 ft | 0 kts | 256° |
| 2026-05-05 00:57 | 33.69259 | -78.93045 | 34 ft | 3 kts | 256° |
| 2026-05-05 00:58 | 33.69250 | -78.93092 | 34 ft | 7 kts | 256° |
| 2026-05-05 00:58 | 33.69222 | -78.93143 | 34 ft | 8 kts | 192° |
| 2026-05-05 00:58 | 33.69133 | -78.93123 | 37 ft | 31 kts | 168° |
| 2026-05-05 00:58 | 33.68693 | -78.93013 | 33 ft | 97 kts | 168° |
| 2026-05-05 00:59 | 33.67843 | -78.92803 | 39 ft | 146 kts | 169° |
| 2026-05-05 00:59 | 33.66829 | -78.92554 | 586 ft | 152 kts | 171° |
| 2026-05-05 00:59 | 33.65794 | -78.92303 | 1324 ft | 151 kts | 171° |
| 2026-05-05 00:59 | 33.64755 | -78.92047 | 1962 ft | 159 kts | 171° |
| 2026-05-05 01:00 | 33.63593 | -78.91777 | 2284 ft | 181 kts | 172° |
| 2026-05-05 01:00 | 33.62270 | -78.91456 | 2631 ft | 207 kts | 171° |
| 2026-05-05 01:00 | 33.60768 | -78.91101 | 2963 ft | 236 kts | 171° |
| 2026-05-05 01:00 | 33.59111 | -78.90722 | 3015 ft | 245 kts | 171° |
| 2026-05-05 01:01 | 33.57426 | -78.90338 | 3018 ft | 248 kts | 171° |
| 2026-05-05 01:01 | 33.55735 | -78.89953 | 3014 ft | 247 kts | 171° |
| 2026-05-05 01:01 | 33.54027 | -78.89579 | 3013 ft | 250 kts | 171° |
| 2026-05-05 01:01 | 33.52327 | -78.89190 | 3011 ft | 248 kts | 171° |
| 2026-05-05 01:02 | 33.50640 | -78.88803 | 3009 ft | 248 kts | 171° |
| 2026-05-05 01:02 | 33.48945 | -78.88417 | 3009 ft | 247 kts | 171° |
| 2026-05-05 01:02 | 33.47258 | -78.88039 | 3008 ft | 246 kts | 171° |
| 2026-05-05 01:02 | 33.45570 | -78.87672 | 3005 ft | 248 kts | 171° |
| 2026-05-05 01:03 | 33.43876 | -78.87298 | 3000 ft | 247 kts | 171° |
| 2026-05-05 01:03 | 33.42237 | -78.86670 | 3012 ft | 251 kts | 152° |
| 2026-05-05 01:03 | 33.40963 | -78.85192 | 3738 ft | 262 kts | 125° |
| 2026-05-05 01:03 | 33.40352 | -78.83126 | 4725 ft | 270 kts | 95° |
| 2026-05-05 01:04 | 33.40664 | -78.80920 | 5666 ft | 273 kts | 64° |
| 2026-05-05 01:04 | 33.43362 | -78.77760 | 7578 ft | 276 kts | 37° |
| 2026-05-05 01:04 | 33.44894 | -78.76354 | 8476 ft | 279 kts | 36° |
| 2026-05-05 01:05 | 33.46438 | -78.74933 | 9390 ft | 281 kts | 36° |
| 2026-05-05 01:05 | 33.48001 | -78.73492 | 10207 ft | 288 kts | 35° |
| 2026-05-05 01:05 | 33.49653 | -78.71966 | 10487 ft | 312 kts | 36° |
| 2026-05-05 01:05 | 33.51403 | -78.70338 | 10777 ft | 331 kts | 35° |
| 2026-05-05 01:06 | 33.53267 | -78.68593 | 11396 ft | 339 kts | 37° |
| 2026-05-05 01:06 | 33.55114 | -78.66859 | 12104 ft | 343 kts | 36° |
| 2026-05-05 01:06 | 33.57003 | -78.65087 | 12827 ft | 347 kts | 36° |
| 2026-05-05 01:06 | 33.58918 | -78.63296 | 13517 ft | 351 kts | 36° |
| 2026-05-05 01:07 | 33.60861 | -78.61484 | 14153 ft | 356 kts | 35° |
| 2026-05-05 01:07 | 33.62837 | -78.59635 | 14547 ft | 364 kts | 36° |
| 2026-05-05 01:07 | 33.64839 | -78.57758 | 15218 ft | 367 kts | 35° |
| 2026-05-05 01:07 | 33.66865 | -78.55864 | 15804 ft | 371 kts | 35° |
| 2026-05-05 01:08 | 33.68916 | -78.53945 | 16386 ft | 376 kts | 35° |
| 2026-05-05 01:08 | 33.70986 | -78.52002 | 16968 ft | 380 kts | 35° |
| 2026-05-05 01:08 | 33.73084 | -78.50034 | 17537 ft | 385 kts | 35° |
| 2026-05-05 01:08 | 33.75205 | -78.48039 | 18124 ft | 389 kts | 34° |
| 2026-05-05 01:09 | 33.77349 | -78.46023 | 18667 ft | 394 kts | 34° |
| 2026-05-05 01:09 | 33.79520 | -78.43982 | 19192 ft | 398 kts | 34° |
| 2026-05-05 01:09 | 33.81708 | -78.41924 | 19736 ft | 401 kts | 34° |
| 2026-05-05 01:09 | 33.83919 | -78.39843 | 20278 ft | 405 kts | 34° |
| 2026-05-05 01:10 | 33.86149 | -78.37745 | 20804 ft | 409 kts | 34° |
| 2026-05-05 01:10 | 33.88396 | -78.35629 | 21321 ft | 412 kts | 34° |
| 2026-05-05 01:10 | 33.90659 | -78.33495 | 21821 ft | 415 kts | 34° |
| 2026-05-05 01:10 | 33.92942 | -78.31339 | 22332 ft | 419 kts | 33° |
| 2026-05-05 01:11 | 33.95241 | -78.29164 | 22824 ft | 422 kts | 33° |
| 2026-05-05 01:11 | 33.97555 | -78.26974 | 23305 ft | 425 kts | 33° |
| 2026-05-05 01:11 | 33.99893 | -78.24761 | 23766 ft | 429 kts | 33° |
| 2026-05-05 01:11 | 34.02247 | -78.22530 | 24166 ft | 432 kts | 33° |
| 2026-05-05 01:12 | 34.04618 | -78.20280 | 24574 ft | 435 kts | 33° |
| 2026-05-05 01:12 | 34.06972 | -78.18046 | 24967 ft | 437 kts | 33° |
| 2026-05-05 01:12 | 34.09367 | -78.15770 | 25359 ft | 440 kts | 33° |
| 2026-05-05 01:12 | 34.11782 | -78.13473 | 25741 ft | 443 kts | 33° |
| 2026-05-05 01:13 | 34.14211 | -78.11161 | 26126 ft | 446 kts | 34° |
| 2026-05-05 01:13 | 34.16660 | -78.08833 | 26528 ft | 449 kts | 34° |
| 2026-05-05 01:13 | 34.19122 | -78.06492 | 26921 ft | 451 kts | 34° |
| 2026-05-05 01:13 | 34.21595 | -78.04135 | 27302 ft | 454 kts | 34° |
| 2026-05-05 01:14 | 34.24080 | -78.01768 | 27684 ft | 457 kts | 34° |
| 2026-05-05 01:14 | 34.26584 | -77.99380 | 28067 ft | 460 kts | 34° |
| 2026-05-05 01:14 | 34.29117 | -77.96965 | 28455 ft | 463 kts | 34° |
| 2026-05-05 01:14 | 34.31690 | -77.94625 | 28805 ft | 463 kts | 28° |
| 2026-05-05 01:15 | 34.34491 | -77.92735 | 29149 ft | 460 kts | 19° |
| 2026-05-05 01:15 | 34.37445 | -77.91401 | 29490 ft | 458 kts | 11° |
| 2026-05-05 01:15 | 34.40551 | -77.90611 | 29873 ft | 455 kts | 3° |
| 2026-05-05 01:15 | 34.43691 | -77.90078 | 30226 ft | 457 kts | 3° |
| 2026-05-05 01:16 | 34.46848 | -77.89536 | 30529 ft | 460 kts | 3° |
| 2026-05-05 01:16 | 34.50022 | -77.88985 | 30897 ft | 461 kts | 3° |
| 2026-05-05 01:16 | 34.53187 | -77.88429 | 31361 ft | 459 kts | 3° |
| 2026-05-05 01:16 | 34.56350 | -77.87868 | 31826 ft | 458 kts | 3° |
| 2026-05-05 01:17 | 34.59501 | -77.87308 | 32288 ft | 457 kts | 2° |
| 2026-05-05 01:17 | 34.62644 | -77.86752 | 32759 ft | 456 kts | 2° |
| 2026-05-05 01:17 | 34.65787 | -77.86199 | 33261 ft | 455 kts | 2° |
| 2026-05-05 01:17 | 34.68913 | -77.85649 | 33760 ft | 453 kts | 2° |
| 2026-05-05 01:18 | 34.72032 | -77.85100 | 34220 ft | 452 kts | 2° |
| 2026-05-05 01:18 | 34.75145 | -77.84552 | 34615 ft | 452 kts | 2° |
| 2026-05-05 01:18 | 34.78257 | -77.84005 | 34993 ft | 452 kts | 2° |
| 2026-05-05 01:18 | 34.81367 | -77.83459 | 35358 ft | 451 kts | 2° |
| 2026-05-05 01:19 | 34.84477 | -77.82913 | 35712 ft | 451 kts | 2° |
| 2026-05-05 01:19 | 34.87582 | -77.82230 | 36041 ft | 456 kts | 8° |
| 2026-05-05 01:19 | 34.90604 | -77.81218 | 36436 ft | 457 kts | 9° |
| 2026-05-05 01:19 | 34.93662 | -77.80180 | 36797 ft | 456 kts | 9° |
| 2026-05-05 01:20 | 34.96716 | -77.79142 | 37147 ft | 455 kts | 9° |
| 2026-05-05 01:20 | 34.99766 | -77.78106 | 37478 ft | 455 kts | 9° |
| 2026-05-05 01:20 | 35.02816 | -77.77071 | 37801 ft | 455 kts | 9° |
| 2026-05-05 01:20 | 35.05862 | -77.76041 | 38116 ft | 454 kts | 9° |
| 2026-05-05 01:21 | 35.08910 | -77.75012 | 38431 ft | 454 kts | 9° |
| 2026-05-05 01:21 | 35.11956 | -77.73983 | 38730 ft | 454 kts | 9° |
| 2026-05-05 01:21 | 35.14994 | -77.72953 | 38989 ft | 453 kts | 9° |
| 2026-05-05 01:21 | 35.18031 | -77.71921 | 39071 ft | 453 kts | 9° |
| 2026-05-05 01:22 | 35.24104 | -77.69852 | 39089 ft | 453 kts | 9° |
| 2026-05-05 01:22 | 35.30173 | -77.67787 | 39091 ft | 453 kts | 9° |
| 2026-05-05 01:23 | 35.36243 | -77.65721 | 39091 ft | 453 kts | 9° |
| 2026-05-05 01:23 | 35.42310 | -77.63643 | 39091 ft | 453 kts | 9° |
| 2026-05-05 01:24 | 35.48341 | -77.61582 | 39085 ft | 453 kts | 9° |
| 2026-05-05 01:24 | 35.54420 | -77.59503 | 39067 ft | 453 kts | 9° |
| 2026-05-05 01:25 | 35.60499 | -77.57414 | 39079 ft | 454 kts | 9° |
| 2026-05-05 01:25 | 35.66585 | -77.55324 | 39087 ft | 454 kts | 9° |
| 2026-05-05 01:26 | 35.72663 | -77.53236 | 39083 ft | 453 kts | 9° |
| 2026-05-05 01:26 | 35.78731 | -77.51184 | 39081 ft | 452 kts | 8° |
| 2026-05-05 01:27 | 35.84813 | -77.49224 | 39088 ft | 451 kts | 8° |
| 2026-05-05 01:27 | 35.90847 | -77.47279 | 39079 ft | 451 kts | 8° |
| 2026-05-05 01:28 | 35.96919 | -77.45302 | 39074 ft | 451 kts | 9° |
| 2026-05-05 01:28 | 36.02988 | -77.43318 | 39068 ft | 451 kts | 9° |
| 2026-05-05 01:29 | 36.09055 | -77.41326 | 39073 ft | 451 kts | 9° |
| 2026-05-05 01:29 | 36.15129 | -77.39328 | 39054 ft | 452 kts | 9° |
| 2026-05-05 01:30 | 36.21212 | -77.37327 | 39055 ft | 452 kts | 9° |
| 2026-05-05 01:30 | 36.27298 | -77.35323 | 39058 ft | 453 kts | 9° |
| 2026-05-05 01:31 | 36.33382 | -77.33314 | 39070 ft | 453 kts | 10° |
| 2026-05-05 01:31 | 36.39476 | -77.31297 | 39063 ft | 453 kts | 10° |
| 2026-05-05 01:32 | 36.45577 | -77.29273 | 39052 ft | 453 kts | 10° |
| 2026-05-05 01:32 | 36.51671 | -77.27252 | 39046 ft | 454 kts | 10° |
| 2026-05-05 01:33 | 36.57731 | -77.25238 | 39052 ft | 454 kts | 10° |
| 2026-05-05 01:33 | 36.63826 | -77.23208 | 39046 ft | 454 kts | 10° |
| 2026-05-05 01:34 | 36.69927 | -77.21180 | 39040 ft | 454 kts | 10° |
| 2026-05-05 01:34 | 36.76033 | -77.19140 | 39031 ft | 454 kts | 10° |
| 2026-05-05 01:35 | 36.82139 | -77.17106 | 39028 ft | 454 kts | 10° |
| 2026-05-05 01:35 | 36.88245 | -77.15061 | 39023 ft | 454 kts | 10° |
| 2026-05-05 01:36 | 36.94347 | -77.13012 | 39022 ft | 454 kts | 10° |
| 2026-05-05 01:36 | 37.00446 | -77.10965 | 39021 ft | 454 kts | 10° |
| 2026-05-05 01:37 | 37.06546 | -77.08919 | 39033 ft | 453 kts | 10° |
| 2026-05-05 01:37 | 37.12638 | -77.06869 | 39025 ft | 453 kts | 11° |
| 2026-05-05 01:38 | 37.18717 | -77.04802 | 39019 ft | 453 kts | 11° |
| 2026-05-05 01:38 | 37.24807 | -77.02736 | 39027 ft | 453 kts | 11° |
| 2026-05-05 01:39 | 37.30887 | -77.00677 | 39009 ft | 452 kts | 11° |
| 2026-05-05 01:39 | 37.36977 | -76.98625 | 39003 ft | 452 kts | 11° |
| 2026-05-05 01:40 | 37.43015 | -76.96563 | 38997 ft | 453 kts | 11° |
| 2026-05-05 01:40 | 37.48906 | -76.93685 | 39014 ft | 459 kts | 24° |
| 2026-05-05 01:41 | 37.54550 | -76.89934 | 39007 ft | 458 kts | 24° |
| 2026-05-05 01:41 | 37.60188 | -76.86181 | 39020 ft | 458 kts | 24° |
| 2026-05-05 01:42 | 37.65831 | -76.82427 | 38996 ft | 459 kts | 24° |
| 2026-05-05 01:42 | 37.71471 | -76.78650 | 38988 ft | 459 kts | 24° |
| 2026-05-05 01:43 | 37.77124 | -76.74877 | 38981 ft | 459 kts | 24° |
| 2026-05-05 01:43 | 37.82775 | -76.71097 | 38979 ft | 460 kts | 24° |
| 2026-05-05 01:44 | 37.87477 | -76.67946 | 38976 ft | 460 kts | 24° |
| 2026-05-05 01:44 | 37.93169 | -76.64250 | 38982 ft | 459 kts | 22° |
| 2026-05-05 01:45 | 37.99827 | -76.60105 | 38976 ft | 458 kts | 22° |
| 2026-05-05 01:45 | 38.04617 | -76.57104 | 38978 ft | 458 kts | 22° |
| 2026-05-05 01:46 | 38.10322 | -76.53470 | 38974 ft | 458 kts | 23° |
| 2026-05-05 01:46 | 38.16024 | -76.49832 | 38989 ft | 458 kts | 23° |
| 2026-05-05 01:47 | 38.21718 | -76.46188 | 38976 ft | 458 kts | 23° |
| 2026-05-05 01:47 | 38.27373 | -76.42563 | 38975 ft | 458 kts | 23° |
| 2026-05-05 01:48 | 38.32691 | -76.38023 | 38988 ft | 463 kts | 34° |
| 2026-05-05 01:48 | 38.37806 | -76.33031 | 38983 ft | 463 kts | 34° |
| 2026-05-05 01:49 | 38.42911 | -76.28037 | 38981 ft | 462 kts | 34° |
| 2026-05-05 01:49 | 38.48010 | -76.23032 | 38986 ft | 462 kts | 34° |
| 2026-05-05 01:50 | 38.53109 | -76.18018 | 38467 ft | 464 kts | 34° |
| 2026-05-05 01:50 | 38.55676 | -76.15500 | 37769 ft | 465 kts | 34° |
| 2026-05-05 01:50 | 38.58240 | -76.12983 | 37185 ft | 464 kts | 35° |
| 2026-05-05 01:51 | 38.60804 | -76.10461 | 36510 ft | 465 kts | 35° |
| 2026-05-05 01:51 | 38.63377 | -76.07926 | 35765 ft | 468 kts | 34° |
| 2026-05-05 01:51 | 38.65955 | -76.05446 | 34954 ft | 472 kts | 34° |
| 2026-05-05 01:51 | 38.68617 | -76.02955 | 34071 ft | 476 kts | 33° |
| 2026-05-05 01:52 | 38.71305 | -76.00483 | 33247 ft | 476 kts | 33° |
| 2026-05-05 01:52 | 38.74003 | -75.98012 | 32155 ft | 474 kts | 33° |
| 2026-05-05 01:52 | 38.76666 | -75.95556 | 31062 ft | 467 kts | 33° |
| 2026-05-05 01:52 | 38.79233 | -75.93161 | 30624 ft | 446 kts | 34° |
| 2026-05-05 01:53 | 38.81696 | -75.90849 | 30018 ft | 432 kts | 34° |
| 2026-05-05 01:53 | 38.84078 | -75.88605 | 29392 ft | 417 kts | 34° |
| 2026-05-05 01:53 | 38.86387 | -75.86427 | 28842 ft | 410 kts | 34° |
| 2026-05-05 01:53 | 38.88686 | -75.84262 | 28285 ft | 410 kts | 34° |
| 2026-05-05 01:54 | 38.90983 | -75.82100 | 27715 ft | 408 kts | 34° |
| 2026-05-05 01:54 | 38.93266 | -75.79949 | 27168 ft | 405 kts | 34° |
| 2026-05-05 01:54 | 38.95541 | -75.77804 | 26711 ft | 407 kts | 34° |
| 2026-05-05 01:54 | 38.97872 | -75.75608 | 26605 ft | 421 kts | 34° |
| 2026-05-05 01:55 | 39.00248 | -75.73369 | 26390 ft | 424 kts | 34° |
| 2026-05-05 01:55 | 39.02631 | -75.71120 | 26184 ft | 425 kts | 34° |
| 2026-05-05 01:55 | 39.05006 | -75.68874 | 25966 ft | 424 kts | 34° |
| 2026-05-05 01:55 | 39.07377 | -75.66629 | 25750 ft | 423 kts | 34° |
| 2026-05-05 01:56 | 39.09744 | -75.64384 | 25541 ft | 422 kts | 34° |
| 2026-05-05 01:56 | 39.12099 | -75.62148 | 25327 ft | 421 kts | 34° |
| 2026-05-05 01:56 | 39.14451 | -75.59911 | 25127 ft | 419 kts | 34° |
| 2026-05-05 01:56 | 39.16792 | -75.57682 | 24906 ft | 418 kts | 34° |
| 2026-05-05 01:57 | 39.19126 | -75.55458 | 24695 ft | 417 kts | 34° |
| 2026-05-05 01:57 | 39.21454 | -75.53237 | 24489 ft | 416 kts | 34° |
| 2026-05-05 01:57 | 39.23778 | -75.51023 | 24280 ft | 415 kts | 34° |
| 2026-05-05 01:57 | 39.26124 | -75.48865 | 24074 ft | 413 kts | 32° |
| 2026-05-05 01:58 | 39.28460 | -75.46788 | 23875 ft | 412 kts | 32° |
| 2026-05-05 01:58 | 39.30832 | -75.44719 | 23663 ft | 411 kts | 32° |
| 2026-05-05 01:58 | 39.33200 | -75.42658 | 23459 ft | 410 kts | 32° |
| 2026-05-05 01:58 | 39.35558 | -75.40595 | 23234 ft | 408 kts | 31° |
| 2026-05-05 01:59 | 39.37899 | -75.38538 | 23032 ft | 407 kts | 32° |
| 2026-05-05 01:59 | 39.40233 | -75.36477 | 22831 ft | 406 kts | 32° |
| 2026-05-05 01:59 | 39.42561 | -75.34405 | 22629 ft | 405 kts | 32° |
| 2026-05-05 01:59 | 39.44877 | -75.32338 | 22430 ft | 404 kts | 32° |
| 2026-05-05 02:00 | 39.47187 | -75.30271 | 22214 ft | 403 kts | 32° |
| 2026-05-05 02:00 | 39.49490 | -75.28208 | 22026 ft | 402 kts | 32° |
| 2026-05-05 02:00 | 39.51788 | -75.26141 | 21734 ft | 402 kts | 32° |
| 2026-05-05 02:00 | 39.54064 | -75.24043 | 21253 ft | 400 kts | 33° |
| 2026-05-05 02:01 | 39.56308 | -75.21930 | 20820 ft | 398 kts | 33° |
| 2026-05-05 02:01 | 39.58536 | -75.19815 | 20386 ft | 396 kts | 33° |
| 2026-05-05 02:01 | 39.60753 | -75.17708 | 19958 ft | 394 kts | 33° |
| 2026-05-05 02:01 | 39.62962 | -75.15619 | 19533 ft | 392 kts | 33° |
| 2026-05-05 02:02 | 39.65166 | -75.13546 | 19106 ft | 391 kts | 33° |
| 2026-05-05 02:02 | 39.67363 | -75.11481 | 18684 ft | 389 kts | 33° |
| 2026-05-05 02:02 | 39.69546 | -75.09492 | 18264 ft | 387 kts | 31° |
| 2026-05-05 02:02 | 39.71781 | -75.07551 | 17807 ft | 385 kts | 30° |
| 2026-05-05 02:03 | 39.74014 | -75.05661 | 17381 ft | 382 kts | 30° |
| 2026-05-05 02:03 | 39.76257 | -75.03769 | 17039 ft | 378 kts | 30° |
| 2026-05-05 02:03 | 39.78457 | -75.01910 | 16631 ft | 376 kts | 30° |
| 2026-05-05 02:03 | 39.80612 | -75.00079 | 16227 ft | 373 kts | 30° |
| 2026-05-05 02:04 | 39.82771 | -74.98227 | 15831 ft | 371 kts | 30° |
| 2026-05-05 02:04 | 39.84914 | -74.96373 | 15431 ft | 369 kts | 31° |
| 2026-05-05 02:04 | 39.87031 | -74.94503 | 15034 ft | 367 kts | 31° |
| 2026-05-05 02:04 | 39.89117 | -74.92610 | 14639 ft | 365 kts | 32° |
| 2026-05-05 02:05 | 39.91185 | -74.90710 | 14240 ft | 362 kts | 33° |
| 2026-05-05 02:05 | 39.93082 | -74.88544 | 13841 ft | 364 kts | 44° |
| 2026-05-05 02:05 | 39.94770 | -74.86107 | 13484 ft | 358 kts | 45° |
| 2026-05-05 02:05 | 39.96408 | -74.83749 | 13355 ft | 344 kts | 45° |
| 2026-05-05 02:06 | 39.97975 | -74.81498 | 13002 ft | 327 kts | 44° |
| 2026-05-05 02:06 | 39.99492 | -74.79327 | 12389 ft | 321 kts | 44° |
| 2026-05-05 02:06 | 40.00998 | -74.77177 | 12005 ft | 319 kts | 44° |
| 2026-05-05 02:06 | 40.02475 | -74.75073 | 11628 ft | 318 kts | 44° |
| 2026-05-05 02:07 | 40.03982 | -74.72929 | 11299 ft | 315 kts | 44° |
| 2026-05-05 02:07 | 40.05440 | -74.70842 | 10943 ft | 315 kts | 44° |
| 2026-05-05 02:07 | 40.06906 | -74.68731 | 10597 ft | 313 kts | 44° |
| 2026-05-05 02:07 | 40.08368 | -74.66629 | 10239 ft | 312 kts | 44° |
| 2026-05-05 02:08 | 40.09821 | -74.64542 | 10011 ft | 307 kts | 44° |
| 2026-05-05 02:08 | 40.11253 | -74.62482 | 9994 ft | 307 kts | 44° |
| 2026-05-05 02:08 | 40.12686 | -74.60422 | 10005 ft | 308 kts | 43° |
| 2026-05-05 02:08 | 40.14126 | -74.58350 | 9993 ft | 308 kts | 44° |
| 2026-05-05 02:09 | 40.15565 | -74.56274 | 9994 ft | 308 kts | 44° |
| 2026-05-05 02:09 | 40.17002 | -74.54196 | 9993 ft | 308 kts | 44° |
| 2026-05-05 02:09 | 40.18437 | -74.52117 | 9997 ft | 308 kts | 44° |
| 2026-05-05 02:09 | 40.19873 | -74.50041 | 9991 ft | 308 kts | 44° |
| 2026-05-05 02:10 | 40.21345 | -74.48009 | 9997 ft | 307 kts | 41° |
| 2026-05-05 02:10 | 40.22868 | -74.46057 | 10013 ft | 306 kts | 39° |
| 2026-05-05 02:10 | 40.24412 | -74.44138 | 10015 ft | 306 kts | 39° |
| 2026-05-05 02:10 | 40.25962 | -74.42224 | 10009 ft | 306 kts | 39° |
| 2026-05-05 02:11 | 40.27504 | -74.40314 | 9739 ft | 304 kts | 39° |
| 2026-05-05 02:11 | 40.29031 | -74.38405 | 9373 ft | 304 kts | 39° |
| 2026-05-05 02:11 | 40.30555 | -74.36487 | 9000 ft | 304 kts | 40° |
| 2026-05-05 02:11 | 40.32077 | -74.34564 | 8666 ft | 302 kts | 40° |
| 2026-05-05 02:12 | 40.33577 | -74.32663 | 8364 ft | 299 kts | 40° |
| 2026-05-05 02:12 | 40.36560 | -74.28895 | 7704 ft | 296 kts | 37° |
| 2026-05-05 02:12 | 40.38222 | -74.27346 | 7369 ft | 292 kts | 28° |
| 2026-05-05 02:13 | 40.39937 | -74.25942 | 7057 ft | 289 kts | 27° |
| 2026-05-05 02:13 | 40.41650 | -74.24556 | 6999 ft | 290 kts | 27° |
| 2026-05-05 02:13 | 40.43375 | -74.23164 | 7003 ft | 291 kts | 27° |
| 2026-05-05 02:13 | 40.45103 | -74.21771 | 7004 ft | 291 kts | 27° |
| 2026-05-05 02:14 | 40.46823 | -74.20383 | 6720 ft | 289 kts | 27° |
| 2026-05-05 02:14 | 40.48542 | -74.18999 | 6382 ft | 290 kts | 27° |
| 2026-05-05 02:14 | 40.50258 | -74.17615 | 6038 ft | 289 kts | 27° |
| 2026-05-05 02:14 | 40.51953 | -74.16253 | 5683 ft | 289 kts | 27° |
| 2026-05-05 02:15 | 40.53677 | -74.14879 | 5320 ft | 290 kts | 28° |
| 2026-05-05 02:15 | 40.55405 | -74.13519 | 4975 ft | 289 kts | 27° |
| 2026-05-05 02:15 | 40.57139 | -74.12170 | 4617 ft | 290 kts | 28° |
| 2026-05-05 02:15 | 40.58875 | -74.10831 | 4281 ft | 289 kts | 27° |
| 2026-05-05 02:16 | 40.60608 | -74.09502 | 4026 ft | 288 kts | 27° |
| 2026-05-05 02:16 | 40.62348 | -74.08172 | 4008 ft | 290 kts | 27° |
| 2026-05-05 02:16 | 40.64094 | -74.06832 | 4008 ft | 290 kts | 27° |
| 2026-05-05 02:16 | 40.65846 | -74.05495 | 4028 ft | 290 kts | 27° |
| 2026-05-05 02:17 | 40.67591 | -74.04162 | 4025 ft | 290 kts | 27° |
| 2026-05-05 02:17 | 40.69343 | -74.02835 | 4027 ft | 291 kts | 27° |
| 2026-05-05 02:17 | 40.71092 | -74.01517 | 4017 ft | 285 kts | 27° |
| 2026-05-05 02:17 | 40.72767 | -74.00251 | 4011 ft | 271 kts | 27° |
| 2026-05-05 02:18 | 40.74334 | -73.99061 | 4024 ft | 256 kts | 27° |
| 2026-05-05 02:18 | 40.75827 | -73.97918 | 4022 ft | 241 kts | 27° |
| 2026-05-05 02:18 | 40.77239 | -73.96823 | 4007 ft | 236 kts | 27° |
| 2026-05-05 02:18 | 40.78643 | -73.95731 | 3995 ft | 233 kts | 27° |
| 2026-05-05 02:19 | 40.80046 | -73.94642 | 3998 ft | 234 kts | 27° |
| 2026-05-05 02:19 | 40.81452 | -73.93555 | 3996 ft | 234 kts | 27° |
| 2026-05-05 02:19 | 40.82855 | -73.92472 | 3992 ft | 233 kts | 27° |
| 2026-05-05 02:19 | 40.84245 | -73.91401 | 3743 ft | 233 kts | 27° |
| 2026-05-05 02:20 | 40.85647 | -73.90326 | 3459 ft | 233 kts | 27° |
| 2026-05-05 02:20 | 40.87064 | -73.89256 | 3164 ft | 234 kts | 27° |
| 2026-05-05 02:20 | 40.88481 | -73.88197 | 2903 ft | 234 kts | 27° |
| 2026-05-05 02:20 | 40.89900 | -73.87139 | 2639 ft | 234 kts | 27° |
| 2026-05-05 02:21 | 40.91320 | -73.86095 | 2393 ft | 233 kts | 27° |
| 2026-05-05 02:21 | 40.92600 | -73.84804 | 2099 ft | 233 kts | 56° |
| 2026-05-05 02:21 | 40.93154 | -73.82893 | 1986 ft | 216 kts | 95° |
| 2026-05-05 02:21 | 40.92925 | -73.81036 | 2001 ft | 200 kts | 114° |
| 2026-05-05 02:22 | 40.92506 | -73.79292 | 1996 ft | 198 kts | 117° |
| 2026-05-05 02:22 | 40.91861 | -73.77776 | 1991 ft | 182 kts | 149° |
| 2026-05-05 02:22 | 40.90758 | -73.77257 | 2002 ft | 165 kts | 189° |
| 2026-05-05 02:22 | 40.89732 | -73.77803 | 2014 ft | 163 kts | 216° |
| 2026-05-05 02:23 | 40.88778 | -73.78608 | 2003 ft | 163 kts | 213° |
| 2026-05-05 02:23 | 40.87814 | -73.79396 | 1998 ft | 158 kts | 212° |
| 2026-05-05 02:23 | 40.86936 | -73.80118 | 1880 ft | 141 kts | 213° |
| 2026-05-05 02:23 | 40.86135 | -73.80781 | 1763 ft | 131 kts | 213° |
| 2026-05-05 02:24 | 40.85363 | -73.81420 | 1589 ft | 131 kts | 213° |
| 2026-05-05 02:24 | 40.84596 | -73.82056 | 1412 ft | 130 kts | 212° |
| 2026-05-05 02:24 | 40.83830 | -73.82690 | 1228 ft | 129 kts | 213° |
| 2026-05-05 02:24 | 40.83062 | -73.83326 | 1050 ft | 129 kts | 211° |
| 2026-05-05 02:25 | 40.82304 | -73.83953 | 891 ft | 130 kts | 211° |
| 2026-05-05 02:25 | 40.81536 | -73.84590 | 724 ft | 129 kts | 210° |
| 2026-05-05 02:25 | 40.80773 | -73.85221 | 572 ft | 130 kts | 212° |
| 2026-05-05 02:25 | 40.80015 | -73.85848 | 407 ft | 127 kts | 210° |
| 2026-05-05 02:26 | 40.79250 | -73.86486 | 226 ft | 131 kts | 212° |
| 2026-05-05 02:26 | 40.78493 | -73.87115 | 43 ft | 128 kts | 210° |
| 2026-05-05 02:26 | 40.77816 | -73.87673 | 26 ft | 99 kts | 211° |
| 2026-05-05 02:26 | 40.77472 | -73.87956 | 23 ft | 16 kts | 212° |
| 2026-05-05 02:27 | 40.77381 | -73.87993 | 22 ft | 15 kts | 182° |
| 2026-05-05 02:27 | 40.77293 | -73.87988 | 20 ft | 7 kts | 137° |
| 2026-05-05 02:27 | 40.77315 | -73.87937 | 21 ft | 8 kts | 32° |
| 2026-05-05 02:27 | 40.77356 | -73.87903 | 20 ft | 0 kts | 32° |
| 2026-05-05 02:28 | 40.77357 | -73.87902 | 20 ft | 2 kts | 32° |
| 2026-05-05 02:28 | 40.77388 | -73.87876 | 21 ft | 7 kts | 32° |
| 2026-05-05 02:29 | 40.77437 | -73.87835 | 21 ft | 10 kts | 33° |
| 2026-05-05 02:29 | 40.77501 | -73.87780 | 21 ft | 12 kts | 33° |
| 2026-05-05 02:29 | 40.77581 | -73.87713 | 21 ft | 15 kts | 32° |
| 2026-05-05 02:29 | 40.77608 | -73.87639 | 21 ft | 10 kts | 101° |
| 2026-05-05 02:30 | 40.77650 | -73.87571 | 21 ft | 10 kts | 29° |
| 2026-05-05 02:30 | 40.77703 | -73.87530 | 20 ft | 0 kts | 34° |
| 2026-05-05 02:31 | 40.77705 | -73.87528 | 22 ft | 2 kts | 34° |
| 2026-05-05 02:31 | 40.77735 | -73.87497 | 20 ft | 8 kts | 49° |
| 2026-05-05 02:31 | 40.77727 | -73.87448 | 18 ft | 9 kts | 133° |
| 2026-05-05 02:31 | 40.77705 | -73.87369 | 20 ft | 10 kts | 107° |
| 2026-05-05 02:32 | 40.77680 | -73.87317 | 21 ft | 6 kts | 174° |
| 2026-05-05 02:32 | 40.77647 | -73.87332 | 20 ft | 4 kts | 179° |
| 2026-05-05 02:32 | 40.77619 | -73.87328 | 20 ft | 3 kts | 181° |
| 2026-05-05 02:32 | 40.77617 | -73.87328 | 20 ft | 0 kts | 180° |